Elton, Wisconsin
Current Conditions -  °F | °C
As of 8:55 AM on Thursday 23 Oct 2014 (Local Time) from KAIG Reporting Station
Haze Haze  
Wind Chill: 33°   Ceiling: 4100
Heat Index: 38°   Visibility: 4mi
Dew Point: 37°   Wind: 7mph
Humidity: 97%   Direction: 170°S
Pressure: 30.09"   Gusts: NA
Location:  45.17°N, 88.89°W
Report Text: KAIG 231355Z AUTO 17006KT 4SM BR SCT036 BKN041 OVC050 03/03 A3009 RMK AO2 P0002 T00330029
Loading
Personal Weather Stations






























Interactive Weather Map
Tropical Storm Tracking
New forecast layout! Learn more

10-Day Weather Forecast

Advertisements
Track Severe Weather on mobile